sensor_id;sensor_type;location;lat;lon;timestamp;P1;durP1;ratioP1;P2;durP2;ratioP2
32152;SDS011;18656;50.580;11.392;2023-05-29T00:02:21;8.07;;;4.20;;
32152;SDS011;18656;50.580;11.392;2023-05-29T00:04:48;8.63;;;4.60;;
32152;SDS011;18656;50.580;11.392;2023-05-29T00:07:17;5.85;;;4.68;;
32152;SDS011;18656;50.580;11.392;2023-05-29T00:09:44;8.43;;;4.95;;
32152;SDS011;18656;50.580;11.392;2023-05-29T00:12:12;8.25;;;4.90;;
32152;SDS011;18656;50.580;11.392;2023-05-29T00:14:39;10.30;;;4.80;;
32152;SDS011;18656;50.580;11.392;2023-05-29T00:17:07;7.28;;;4.47;;
32152;SDS011;18656;50.580;11.392;2023-05-29T00:19:34;6.43;;;4.43;;
32152;SDS011;18656;50.580;11.392;2023-05-29T00:22:02;7.03;;;5.15;;
32152;SDS011;18656;50.580;11.392;2023-05-29T00:24:29;13.85;;;4.95;;
32152;SDS011;18656;50.580;11.392;2023-05-29T00:26:56;9.48;;;5.07;;
32152;SDS011;18656;50.580;11.392;2023-05-29T00:29:24;10.32;;;4.90;;
32152;SDS011;18656;50.580;11.392;2023-05-29T00:31:52;10.88;;;4.93;;
32152;SDS011;18656;50.580;11.392;2023-05-29T00:34:19;8.00;;;4.85;;
32152;SDS011;18656;50.580;11.392;2023-05-29T00:36:48;8.85;;;4.57;;
32152;SDS011;18656;50.580;11.392;2023-05-29T00:39:16;6.63;;;4.88;;
32152;SDS011;18656;50.580;11.392;2023-05-29T00:41:43;6.38;;;4.22;;
32152;SDS011;18656;50.580;11.392;2023-05-29T00:44:10;9.20;;;4.78;;
32152;SDS011;18656;50.580;11.392;2023-05-29T00:46:38;6.43;;;4.53;;
32152;SDS011;18656;50.580;11.392;2023-05-29T00:49:05;8.95;;;5.50;;
32152;SDS011;18656;50.580;11.392;2023-05-29T00:51:33;8.02;;;4.80;;
32152;SDS011;18656;50.580;11.392;2023-05-29T00:54:02;9.57;;;4.97;;
32152;SDS011;18656;50.580;11.392;2023-05-29T00:56:29;8.80;;;5.18;;
32152;SDS011;18656;50.580;11.392;2023-05-29T00:58:57;7.68;;;4.82;;
32152;SDS011;18656;50.580;11.392;2023-05-29T01:01:24;5.10;;;4.22;;
32152;SDS011;18656;50.580;11.392;2023-05-29T01:03:51;5.03;;;4.50;;
32152;SDS011;18656;50.580;11.392;2023-05-29T01:06:23;9.48;;;4.90;;
32152;SDS011;18656;50.580;11.392;2023-05-29T01:08:51;8.00;;;4.85;;
32152;SDS011;18656;50.580;11.392;2023-05-29T01:13:47;7.30;;;4.60;;
32152;SDS011;18656;50.580;11.392;2023-05-29T01:18:54;9.32;;;5.00;;
32152;SDS011;18656;50.580;11.392;2023-05-29T01:23:58;5.93;;;4.90;;
32152;SDS011;18656;50.580;11.392;2023-05-29T01:29:21;5.50;;;4.65;;
32152;SDS011;18656;50.580;11.392;2023-05-29T01:31:49;8.43;;;4.75;;
32152;SDS011;18656;50.580;11.392;2023-05-29T01:34:17;6.75;;;5.10;;
32152;SDS011;18656;50.580;11.392;2023-05-29T01:36:44;8.43;;;5.35;;
32152;SDS011;18656;50.580;11.392;2023-05-29T01:39:12;8.95;;;4.80;;
32152;SDS011;18656;50.580;11.392;2023-05-29T01:41:40;9.18;;;5.38;;
32152;SDS011;18656;50.580;11.392;2023-05-29T01:44:08;9.25;;;5.13;;
32152;SDS011;18656;50.580;11.392;2023-05-29T01:46:36;7.57;;;5.53;;
32152;SDS011;18656;50.580;11.392;2023-05-29T01:49:04;6.15;;;5.07;;
32152;SDS011;18656;50.580;11.392;2023-05-29T01:51:33;8.65;;;4.93;;
32152;SDS011;18656;50.580;11.392;2023-05-29T01:54:01;6.70;;;4.95;;
32152;SDS011;18656;50.580;11.392;2023-05-29T01:56:29;7.47;;;5.15;;
32152;SDS011;18656;50.580;11.392;2023-05-29T01:58:57;10.13;;;4.93;;
32152;SDS011;18656;50.580;11.392;2023-05-29T02:01:24;7.15;;;4.95;;
32152;SDS011;18656;50.580;11.392;2023-05-29T02:03:52;7.93;;;4.70;;
32152;SDS011;18656;50.580;11.392;2023-05-29T02:06:20;14.30;;;5.57;;
32152;SDS011;18656;50.580;11.392;2023-05-29T02:08:47;8.23;;;5.45;;
32152;SDS011;18656;50.580;11.392;2023-05-29T02:11:14;10.55;;;5.88;;
32152;SDS011;18656;50.580;11.392;2023-05-29T02:13:41;10.60;;;5.05;;
32152;SDS011;18656;50.580;11.392;2023-05-29T02:16:09;12.13;;;5.43;;
32152;SDS011;18656;50.580;11.392;2023-05-29T02:18:36;7.47;;;5.80;;
32152;SDS011;18656;50.580;11.392;2023-05-29T02:21:03;9.85;;;5.85;;
32152;SDS011;18656;50.580;11.392;2023-05-29T02:23:31;9.57;;;5.57;;
32152;SDS011;18656;50.580;11.392;2023-05-29T02:25:58;10.25;;;5.40;;
32152;SDS011;18656;50.580;11.392;2023-05-29T02:28:25;8.43;;;5.75;;
32152;SDS011;18656;50.580;11.392;2023-05-29T02:30:52;8.18;;;5.85;;
32152;SDS011;18656;50.580;11.392;2023-05-29T02:33:20;10.40;;;6.13;;
32152;SDS011;18656;50.580;11.392;2023-05-29T02:35:47;7.38;;;4.95;;
32152;SDS011;18656;50.580;11.392;2023-05-29T02:38:15;8.10;;;5.25;;
32152;SDS011;18656;50.580;11.392;2023-05-29T02:40:42;12.32;;;5.60;;
32152;SDS011;18656;50.580;11.392;2023-05-29T02:43:11;11.25;;;5.47;;
32152;SDS011;18656;50.580;11.392;2023-05-29T02:45:39;8.85;;;5.65;;
32152;SDS011;18656;50.580;11.392;2023-05-29T02:48:06;9.13;;;5.78;;
32152;SDS011;18656;50.580;11.392;2023-05-29T02:50:34;8.32;;;5.65;;
32152;SDS011;18656;50.580;11.392;2023-05-29T02:53:01;12.40;;;6.38;;
32152;SDS011;18656;50.580;11.392;2023-05-29T02:55:29;9.73;;;6.13;;
32152;SDS011;18656;50.580;11.392;2023-05-29T02:57:58;7.95;;;5.65;;
32152;SDS011;18656;50.580;11.392;2023-05-29T03:00:27;9.60;;;5.45;;
32152;SDS011;18656;50.580;11.392;2023-05-29T03:02:55;9.50;;;5.50;;
32152;SDS011;18656;50.580;11.392;2023-05-29T03:05:22;8.02;;;5.30;;
32152;SDS011;18656;50.580;11.392;2023-05-29T03:07:50;9.82;;;6.07;;
32152;SDS011;18656;50.580;11.392;2023-05-29T03:10:19;13.15;;;6.20;;
32152;SDS011;18656;50.580;11.392;2023-05-29T03:12:47;9.18;;;6.75;;
32152;SDS011;18656;50.580;11.392;2023-05-29T03:15:14;10.35;;;6.22;;
32152;SDS011;18656;50.580;11.392;2023-05-29T03:17:41;8.82;;;5.07;;
32152;SDS011;18656;50.580;11.392;2023-05-29T03:20:09;10.50;;;5.43;;
32152;SDS011;18656;50.580;11.392;2023-05-29T03:22:37;6.60;;;4.95;;
32152;SDS011;18656;50.580;11.392;2023-05-29T03:25:04;7.22;;;5.68;;
32152;SDS011;18656;50.580;11.392;2023-05-29T03:27:32;9.60;;;5.80;;
32152;SDS011;18656;50.580;11.392;2023-05-29T03:29:59;10.48;;;5.75;;
32152;SDS011;18656;50.580;11.392;2023-05-29T03:32:26;11.38;;;5.93;;
32152;SDS011;18656;50.580;11.392;2023-05-29T03:34:54;8.15;;;5.22;;
32152;SDS011;18656;50.580;11.392;2023-05-29T03:37:22;8.05;;;5.95;;
32152;SDS011;18656;50.580;11.392;2023-05-29T03:39:49;9.52;;;5.90;;
32152;SDS011;18656;50.580;11.392;2023-05-29T03:42:17;8.68;;;5.35;;
32152;SDS011;18656;50.580;11.392;2023-05-29T03:44:44;7.60;;;5.70;;
32152;SDS011;18656;50.580;11.392;2023-05-29T03:47:11;9.60;;;5.18;;
32152;SDS011;18656;50.580;11.392;2023-05-29T03:49:39;5.80;;;5.07;;
32152;SDS011;18656;50.580;11.392;2023-05-29T03:52:06;12.07;;;8.13;;
32152;SDS011;18656;50.580;11.392;2023-05-29T03:54:33;17.75;;;10.77;;
32152;SDS011;18656;50.580;11.392;2023-05-29T03:57:00;17.20;;;10.90;;
32152;SDS011;18656;50.580;11.392;2023-05-29T03:59:28;12.45;;;6.75;;
32152;SDS011;18656;50.580;11.392;2023-05-29T04:01:55;8.52;;;5.57;;
32152;SDS011;18656;50.580;11.392;2023-05-29T04:04:25;8.68;;;5.40;;
32152;SDS011;18656;50.580;11.392;2023-05-29T04:06:53;8.93;;;5.95;;
32152;SDS011;18656;50.580;11.392;2023-05-29T04:09:20;12.82;;;8.38;;
32152;SDS011;18656;50.580;11.392;2023-05-29T04:11:47;15.70;;;9.75;;
32152;SDS011;18656;50.580;11.392;2023-05-29T04:14:15;9.70;;;8.38;;
32152;SDS011;18656;50.580;11.392;2023-05-29T04:16:45;12.27;;;7.30;;
32152;SDS011;18656;50.580;11.392;2023-05-29T04:19:12;14.38;;;8.48;;
32152;SDS011;18656;50.580;11.392;2023-05-29T04:21:40;16.60;;;8.20;;
32152;SDS011;18656;50.580;11.392;2023-05-29T04:24:07;12.50;;;7.72;;
32152;SDS011;18656;50.580;11.392;2023-05-29T04:26:34;13.07;;;8.52;;
32152;SDS011;18656;50.580;11.392;2023-05-29T04:29:02;13.02;;;8.13;;
32152;SDS011;18656;50.580;11.392;2023-05-29T04:31:29;12.05;;;7.47;;
32152;SDS011;18656;50.580;11.392;2023-05-29T04:33:57;10.70;;;6.88;;
32152;SDS011;18656;50.580;11.392;2023-05-29T04:36:27;12.20;;;7.05;;
32152;SDS011;18656;50.580;11.392;2023-05-29T04:38:58;10.88;;;6.70;;
32152;SDS011;18656;50.580;11.392;2023-05-29T04:41:26;10.18;;;6.03;;
32152;SDS011;18656;50.580;11.392;2023-05-29T04:43:57;8.93;;;6.30;;
32152;SDS011;18656;50.580;11.392;2023-05-29T04:46:24;14.95;;;6.55;;
32152;SDS011;18656;50.580;11.392;2023-05-29T04:48:52;7.93;;;5.45;;
32152;SDS011;18656;50.580;11.392;2023-05-29T04:51:21;12.98;;;5.55;;
32152;SDS011;18656;50.580;11.392;2023-05-29T04:53:49;9.93;;;5.32;;
32152;SDS011;18656;50.580;11.392;2023-05-29T04:56:20;10.40;;;5.82;;
32152;SDS011;18656;50.580;11.392;2023-05-29T04:58:48;10.23;;;5.50;;
32152;SDS011;18656;50.580;11.392;2023-05-29T05:01:15;7.88;;;4.80;;
32152;SDS011;18656;50.580;11.392;2023-05-29T05:03:44;8.30;;;4.95;;
32152;SDS011;18656;50.580;11.392;2023-05-29T05:06:11;8.77;;;5.13;;
32152;SDS011;18656;50.580;11.392;2023-05-29T05:08:39;10.30;;;5.03;;
32152;SDS011;18656;50.580;11.392;2023-05-29T05:11:06;8.23;;;4.53;;
32152;SDS011;18656;50.580;11.392;2023-05-29T05:13:33;8.82;;;4.53;;
32152;SDS011;18656;50.580;11.392;2023-05-29T05:16:01;11.55;;;5.50;;
32152;SDS011;18656;50.580;11.392;2023-05-29T05:18:28;10.40;;;5.22;;
32152;SDS011;18656;50.580;11.392;2023-05-29T05:20:56;13.68;;;4.82;;
32152;SDS011;18656;50.580;11.392;2023-05-29T05:23:24;14.45;;;4.53;;
32152;SDS011;18656;50.580;11.392;2023-05-29T05:25:52;17.52;;;4.32;;
32152;SDS011;18656;50.580;11.392;2023-05-29T05:28:19;15.57;;;4.30;;
32152;SDS011;18656;50.580;11.392;2023-05-29T05:30:46;15.43;;;4.35;;
32152;SDS011;18656;50.580;11.392;2023-05-29T05:33:13;18.20;;;4.28;;
32152;SDS011;18656;50.580;11.392;2023-05-29T05:35:41;19.38;;;4.50;;
32152;SDS011;18656;50.580;11.392;2023-05-29T05:38:08;15.13;;;4.00;;
32152;SDS011;18656;50.580;11.392;2023-05-29T05:40:36;8.63;;;4.03;;
32152;SDS011;18656;50.580;11.392;2023-05-29T05:43:03;8.73;;;3.80;;
32152;SDS011;18656;50.580;11.392;2023-05-29T05:45:30;13.20;;;3.85;;
32152;SDS011;18656;50.580;11.392;2023-05-29T05:47:58;8.77;;;3.70;;
32152;SDS011;18656;50.580;11.392;2023-05-29T05:50:25;12.25;;;3.97;;
32152;SDS011;18656;50.580;11.392;2023-05-29T05:52:52;15.25;;;3.97;;
32152;SDS011;18656;50.580;11.392;2023-05-29T05:55:20;21.58;;;4.70;;
32152;SDS011;18656;50.580;11.392;2023-05-29T05:57:47;21.73;;;5.32;;
32152;SDS011;18656;50.580;11.392;2023-05-29T06:00:14;19.02;;;4.63;;
32152;SDS011;18656;50.580;11.392;2023-05-29T06:02:42;20.10;;;4.40;;
32152;SDS011;18656;50.580;11.392;2023-05-29T06:05:11;24.75;;;5.30;;
32152;SDS011;18656;50.580;11.392;2023-05-29T06:07:39;18.95;;;4.30;;
32152;SDS011;18656;50.580;11.392;2023-05-29T06:10:06;19.23;;;5.05;;
32152;SDS011;18656;50.580;11.392;2023-05-29T06:12:33;16.88;;;4.00;;
32152;SDS011;18656;50.580;11.392;2023-05-29T06:15:01;9.32;;;3.97;;
32152;SDS011;18656;50.580;11.392;2023-05-29T06:17:30;11.75;;;4.07;;
32152;SDS011;18656;50.580;11.392;2023-05-29T06:19:58;13.02;;;3.65;;
32152;SDS011;18656;50.580;11.392;2023-05-29T06:22:26;10.55;;;3.78;;
32152;SDS011;18656;50.580;11.392;2023-05-29T06:24:53;7.10;;;3.58;;
32152;SDS011;18656;50.580;11.392;2023-05-29T06:27:20;13.13;;;4.38;;
32152;SDS011;18656;50.580;11.392;2023-05-29T06:29:51;6.57;;;3.67;;
32152;SDS011;18656;50.580;11.392;2023-05-29T06:32:19;7.15;;;3.60;;
32152;SDS011;18656;50.580;11.392;2023-05-29T06:34:52;5.55;;;3.30;;
32152;SDS011;18656;50.580;11.392;2023-05-29T06:37:19;7.57;;;3.65;;
32152;SDS011;18656;50.580;11.392;2023-05-29T06:39:47;8.40;;;3.75;;
32152;SDS011;18656;50.580;11.392;2023-05-29T06:42:14;9.00;;;3.42;;
32152;SDS011;18656;50.580;11.392;2023-05-29T06:44:41;9.63;;;3.63;;
32152;SDS011;18656;50.580;11.392;2023-05-29T06:47:10;5.97;;;3.60;;
32152;SDS011;18656;50.580;11.392;2023-05-29T06:49:37;4.82;;;3.65;;
32152;SDS011;18656;50.580;11.392;2023-05-29T06:52:06;5.88;;;3.85;;
32152;SDS011;18656;50.580;11.392;2023-05-29T06:54:33;6.95;;;4.10;;
32152;SDS011;18656;50.580;11.392;2023-05-29T06:57:01;9.30;;;3.80;;
32152;SDS011;18656;50.580;11.392;2023-05-29T06:59:36;4.65;;;3.72;;
32152;SDS011;18656;50.580;11.392;2023-05-29T07:02:04;8.18;;;3.83;;
32152;SDS011;18656;50.580;11.392;2023-05-29T07:04:32;8.65;;;3.90;;
32152;SDS011;18656;50.580;11.392;2023-05-29T07:06:59;9.50;;;4.18;;
32152;SDS011;18656;50.580;11.392;2023-05-29T07:09:26;5.97;;;3.85;;
32152;SDS011;18656;50.580;11.392;2023-05-29T07:11:54;6.45;;;3.60;;
32152;SDS011;18656;50.580;11.392;2023-05-29T07:14:21;9.73;;;3.83;;
32152;SDS011;18656;50.580;11.392;2023-05-29T07:16:48;8.95;;;3.83;;
32152;SDS011;18656;50.580;11.392;2023-05-29T07:19:16;6.80;;;3.80;;
32152;SDS011;18656;50.580;11.392;2023-05-29T07:21:50;4.47;;;3.25;;
32152;SDS011;18656;50.580;11.392;2023-05-29T07:24:20;12.07;;;3.90;;
32152;SDS011;18656;50.580;11.392;2023-05-29T07:26:47;5.93;;;3.75;;
32152;SDS011;18656;50.580;11.392;2023-05-29T07:29:14;5.80;;;3.67;;
32152;SDS011;18656;50.580;11.392;2023-05-29T07:31:44;7.18;;;3.78;;
32152;SDS011;18656;50.580;11.392;2023-05-29T07:34:11;5.95;;;3.55;;
32152;SDS011;18656;50.580;11.392;2023-05-29T07:36:47;6.10;;;3.63;;
32152;SDS011;18656;50.580;11.392;2023-05-29T07:39:22;5.78;;;3.50;;
32152;SDS011;18656;50.580;11.392;2023-05-29T07:41:50;6.70;;;3.75;;
32152;SDS011;18656;50.580;11.392;2023-05-29T07:44:17;5.53;;;3.65;;
32152;SDS011;18656;50.580;11.392;2023-05-29T07:46:45;6.38;;;3.20;;
32152;SDS011;18656;50.580;11.392;2023-05-29T07:49:13;8.50;;;3.90;;
32152;SDS011;18656;50.580;11.392;2023-05-29T07:51:41;6.68;;;3.45;;
32152;SDS011;18656;50.580;11.392;2023-05-29T07:54:08;5.65;;;3.65;;
32152;SDS011;18656;50.580;11.392;2023-05-29T07:56:36;4.55;;;2.90;;
32152;SDS011;18656;50.580;11.392;2023-05-29T07:59:04;10.43;;;3.85;;
32152;SDS011;18656;50.580;11.392;2023-05-29T08:01:32;4.30;;;2.90;;
32152;SDS011;18656;50.580;11.392;2023-05-29T08:03:59;6.28;;;2.97;;
32152;SDS011;18656;50.580;11.392;2023-05-29T08:06:27;5.05;;;3.20;;
32152;SDS011;18656;50.580;11.392;2023-05-29T08:08:55;2.95;;;2.63;;
32152;SDS011;18656;50.580;11.392;2023-05-29T08:11:22;4.70;;;3.13;;
32152;SDS011;18656;50.580;11.392;2023-05-29T08:13:49;4.50;;;3.47;;
32152;SDS011;18656;50.580;11.392;2023-05-29T08:16:17;5.85;;;3.22;;
32152;SDS011;18656;50.580;11.392;2023-05-29T08:18:44;6.07;;;3.30;;
32152;SDS011;18656;50.580;11.392;2023-05-29T08:21:12;5.72;;;3.88;;
32152;SDS011;18656;50.580;11.392;2023-05-29T08:23:39;8.50;;;3.90;;
32152;SDS011;18656;50.580;11.392;2023-05-29T08:26:06;6.22;;;3.38;;
32152;SDS011;18656;50.580;11.392;2023-05-29T08:28:34;5.40;;;3.30;;
32152;SDS011;18656;50.580;11.392;2023-05-29T08:31:01;7.72;;;3.50;;
32152;SDS011;18656;50.580;11.392;2023-05-29T08:33:29;7.20;;;4.75;;
32152;SDS011;18656;50.580;11.392;2023-05-29T08:35:57;6.00;;;3.35;;
32152;SDS011;18656;50.580;11.392;2023-05-29T08:38:24;6.60;;;3.40;;
32152;SDS011;18656;50.580;11.392;2023-05-29T08:40:55;5.28;;;3.20;;
32152;SDS011;18656;50.580;11.392;2023-05-29T08:43:24;6.28;;;2.92;;
32152;SDS011;18656;50.580;11.392;2023-05-29T08:45:53;8.23;;;3.78;;
32152;SDS011;18656;50.580;11.392;2023-05-29T08:48:24;4.57;;;3.28;;
32152;SDS011;18656;50.580;11.392;2023-05-29T08:50:52;6.82;;;3.30;;
32152;SDS011;18656;50.580;11.392;2023-05-29T08:53:21;4.35;;;3.47;;
32152;SDS011;18656;50.580;11.392;2023-05-29T08:55:50;4.68;;;3.40;;
32152;SDS011;18656;50.580;11.392;2023-05-29T08:58:19;4.70;;;2.80;;
32152;SDS011;18656;50.580;11.392;2023-05-29T09:00:50;7.78;;;3.42;;
32152;SDS011;18656;50.580;11.392;2023-05-29T09:03:18;5.50;;;2.72;;
32152;SDS011;18656;50.580;11.392;2023-05-29T09:05:47;8.20;;;5.32;;
32152;SDS011;18656;50.580;11.392;2023-05-29T09:08:15;4.65;;;3.08;;
32152;SDS011;18656;50.580;11.392;2023-05-29T09:10:44;6.63;;;3.17;;
32152;SDS011;18656;50.580;11.392;2023-05-29T09:13:12;5.85;;;3.03;;
32152;SDS011;18656;50.580;11.392;2023-05-29T09:15:40;4.30;;;3.17;;
32152;SDS011;18656;50.580;11.392;2023-05-29T09:18:12;12.60;;;3.15;;
32152;SDS011;18656;50.580;11.392;2023-05-29T09:20:39;7.28;;;3.28;;
32152;SDS011;18656;50.580;11.392;2023-05-29T09:23:07;8.20;;;3.22;;
32152;SDS011;18656;50.580;11.392;2023-05-29T09:25:36;4.22;;;2.80;;
32152;SDS011;18656;50.580;11.392;2023-05-29T09:28:07;5.90;;;3.35;;
32152;SDS011;18656;50.580;11.392;2023-05-29T09:33:09;4.18;;;3.05;;
32152;SDS011;18656;50.580;11.392;2023-05-29T09:35:40;4.95;;;2.47;;
32152;SDS011;18656;50.580;11.392;2023-05-29T09:38:08;7.13;;;2.70;;
32152;SDS011;18656;50.580;11.392;2023-05-29T09:40:38;3.15;;;2.85;;
32152;SDS011;18656;50.580;11.392;2023-05-29T09:43:13;3.38;;;2.40;;
32152;SDS011;18656;50.580;11.392;2023-05-29T09:45:43;4.97;;;2.95;;
32152;SDS011;18656;50.580;11.392;2023-05-29T09:48:15;5.07;;;2.85;;
32152;SDS011;18656;50.580;11.392;2023-05-29T09:50:43;3.63;;;2.25;;
32152;SDS011;18656;50.580;11.392;2023-05-29T09:53:24;6.68;;;2.85;;
32152;SDS011;18656;50.580;11.392;2023-05-29T09:55:52;5.20;;;3.00;;
32152;SDS011;18656;50.580;11.392;2023-05-29T09:58:24;5.03;;;3.53;;
32152;SDS011;18656;50.580;11.392;2023-05-29T10:00:51;14.10;;;3.80;;
32152;SDS011;18656;50.580;11.392;2023-05-29T10:03:19;8.70;;;3.08;;
32152;SDS011;18656;50.580;11.392;2023-05-29T10:05:51;4.40;;;2.60;;
32152;SDS011;18656;50.580;11.392;2023-05-29T10:08:19;2.60;;;2.30;;
32152;SDS011;18656;50.580;11.392;2023-05-29T10:10:54;3.83;;;2.40;;
32152;SDS011;18656;50.580;11.392;2023-05-29T10:13:22;2.20;;;2.00;;
32152;SDS011;18656;50.580;11.392;2023-05-29T10:15:52;3.80;;;2.42;;
32152;SDS011;18656;50.580;11.392;2023-05-29T10:18:22;4.15;;;2.70;;
32152;SDS011;18656;50.580;11.392;2023-05-29T10:20:50;3.78;;;2.50;;
32152;SDS011;18656;50.580;11.392;2023-05-29T10:23:24;3.70;;;1.92;;
32152;SDS011;18656;50.580;11.392;2023-05-29T10:25:52;2.78;;;2.28;;
32152;SDS011;18656;50.580;11.392;2023-05-29T10:28:21;6.05;;;2.20;;
32152;SDS011;18656;50.580;11.392;2023-05-29T10:33:29;3.40;;;2.20;;
32152;SDS011;18656;50.580;11.392;2023-05-29T10:36:03;4.40;;;2.53;;
32152;SDS011;18656;50.580;11.392;2023-05-29T10:38:32;5.70;;;2.70;;
32152;SDS011;18656;50.580;11.392;2023-05-29T10:43:45;8.63;;;2.78;;
32152;SDS011;18656;50.580;11.392;2023-05-29T10:46:12;3.38;;;2.58;;
32152;SDS011;18656;50.580;11.392;2023-05-29T10:48:40;2.97;;;2.33;;
32152;SDS011;18656;50.580;11.392;2023-05-29T10:51:07;4.28;;;2.50;;
32152;SDS011;18656;50.580;11.392;2023-05-29T10:53:35;5.43;;;2.67;;
32152;SDS011;18656;50.580;11.392;2023-05-29T10:56:14;3.92;;;2.30;;
32152;SDS011;18656;50.580;11.392;2023-05-29T10:58:42;2.60;;;2.40;;
32152;SDS011;18656;50.580;11.392;2023-05-29T11:01:10;4.78;;;2.53;;
32152;SDS011;18656;50.580;11.392;2023-05-29T11:03:37;4.75;;;2.60;;
32152;SDS011;18656;50.580;11.392;2023-05-29T11:06:05;3.08;;;2.55;;
32152;SDS011;18656;50.580;11.392;2023-05-29T11:11:02;2.78;;;2.10;;
32152;SDS011;18656;50.580;11.392;2023-05-29T11:13:34;4.93;;;2.53;;
32152;SDS011;18656;50.580;11.392;2023-05-29T11:18:38;4.82;;;2.75;;
32152;SDS011;18656;50.580;11.392;2023-05-29T11:21:06;6.78;;;3.00;;
32152;SDS011;18656;50.580;11.392;2023-05-29T11:23:39;4.85;;;2.63;;
32152;SDS011;18656;50.580;11.392;2023-05-29T11:26:09;6.68;;;2.47;;
32152;SDS011;18656;50.580;11.392;2023-05-29T11:28:37;2.40;;;2.20;;
32152;SDS011;18656;50.580;11.392;2023-05-29T11:31:07;4.43;;;2.65;;
32152;SDS011;18656;50.580;11.392;2023-05-29T11:33:38;3.95;;;2.55;;
32152;SDS011;18656;50.580;11.392;2023-05-29T11:36:09;6.00;;;2.53;;
32152;SDS011;18656;50.580;11.392;2023-05-29T11:38:37;6.25;;;2.72;;
32152;SDS011;18656;50.580;11.392;2023-05-29T11:41:04;5.60;;;2.83;;
32152;SDS011;18656;50.580;11.392;2023-05-29T11:43:31;5.75;;;2.70;;
32152;SDS011;18656;50.580;11.392;2023-05-29T11:45:59;5.18;;;2.50;;
32152;SDS011;18656;50.580;11.392;2023-05-29T11:48:26;4.75;;;2.80;;
32152;SDS011;18656;50.580;11.392;2023-05-29T11:50:53;5.75;;;2.60;;
32152;SDS011;18656;50.580;11.392;2023-05-29T11:53:21;3.83;;;2.80;;
32152;SDS011;18656;50.580;11.392;2023-05-29T11:55:48;4.90;;;2.60;;
32152;SDS011;18656;50.580;11.392;2023-05-29T11:58:18;4.05;;;2.28;;
32152;SDS011;18656;50.580;11.392;2023-05-29T12:00:47;4.03;;;2.40;;
32152;SDS011;18656;50.580;11.392;2023-05-29T12:03:17;4.95;;;2.95;;
32152;SDS011;18656;50.580;11.392;2023-05-29T12:05:48;3.42;;;2.40;;
32152;SDS011;18656;50.580;11.392;2023-05-29T12:08:22;5.32;;;2.38;;
32152;SDS011;18656;50.580;11.392;2023-05-29T12:10:51;2.85;;;2.50;;
32152;SDS011;18656;50.580;11.392;2023-05-29T12:13:19;5.85;;;2.50;;
32152;SDS011;18656;50.580;11.392;2023-05-29T12:15:47;3.25;;;2.50;;
32152;SDS011;18656;50.580;11.392;2023-05-29T12:18:15;3.40;;;2.75;;
32152;SDS011;18656;50.580;11.392;2023-05-29T12:20:42;4.57;;;2.83;;
32152;SDS011;18656;50.580;11.392;2023-05-29T12:23:10;4.88;;;2.65;;
32152;SDS011;18656;50.580;11.392;2023-05-29T12:25:40;2.95;;;2.58;;
32152;SDS011;18656;50.580;11.392;2023-05-29T12:28:09;4.97;;;2.53;;
32152;SDS011;18656;50.580;11.392;2023-05-29T12:30:46;7.68;;;2.97;;
32152;SDS011;18656;50.580;11.392;2023-05-29T12:33:29;2.75;;;2.55;;
32152;SDS011;18656;50.580;11.392;2023-05-29T12:36:06;5.78;;;2.72;;
32152;SDS011;18656;50.580;11.392;2023-05-29T12:38:50;6.03;;;2.83;;
32152;SDS011;18656;50.580;11.392;2023-05-29T12:41:22;5.50;;;2.70;;
32152;SDS011;18656;50.580;11.392;2023-05-29T12:43:52;5.53;;;2.72;;
32152;SDS011;18656;50.580;11.392;2023-05-29T12:46:19;3.10;;;2.30;;
32152;SDS011;18656;50.580;11.392;2023-05-29T12:48:46;6.97;;;2.38;;
32152;SDS011;18656;50.580;11.392;2023-05-29T12:51:13;6.60;;;2.60;;
32152;SDS011;18656;50.580;11.392;2023-05-29T12:53:41;4.38;;;2.90;;
32152;SDS011;18656;50.580;11.392;2023-05-29T12:56:08;6.00;;;2.75;;
32152;SDS011;18656;50.580;11.392;2023-05-29T12:58:35;3.60;;;2.58;;
32152;SDS011;18656;50.580;11.392;2023-05-29T13:01:03;4.30;;;2.63;;
32152;SDS011;18656;50.580;11.392;2023-05-29T13:03:30;5.20;;;2.83;;
32152;SDS011;18656;50.580;11.392;2023-05-29T13:05:58;6.55;;;3.20;;
32152;SDS011;18656;50.580;11.392;2023-05-29T13:08:25;4.00;;;2.75;;
32152;SDS011;18656;50.580;11.392;2023-05-29T13:10:53;4.15;;;2.85;;
32152;SDS011;18656;50.580;11.392;2023-05-29T13:13:20;3.97;;;2.83;;
32152;SDS011;18656;50.580;11.392;2023-05-29T13:15:48;5.80;;;2.70;;
32152;SDS011;18656;50.580;11.392;2023-05-29T13:18:15;5.68;;;3.08;;
32152;SDS011;18656;50.580;11.392;2023-05-29T13:20:42;3.65;;;2.55;;
32152;SDS011;18656;50.580;11.392;2023-05-29T13:23:10;7.18;;;2.90;;
32152;SDS011;18656;50.580;11.392;2023-05-29T13:25:37;6.57;;;3.17;;
32152;SDS011;18656;50.580;11.392;2023-05-29T13:28:04;5.53;;;3.25;;
32152;SDS011;18656;50.580;11.392;2023-05-29T13:30:32;6.60;;;2.70;;
32152;SDS011;18656;50.580;11.392;2023-05-29T13:32:59;3.75;;;2.83;;
32152;SDS011;18656;50.580;11.392;2023-05-29T13:35:26;4.35;;;2.97;;
32152;SDS011;18656;50.580;11.392;2023-05-29T13:37:54;5.05;;;2.88;;
32152;SDS011;18656;50.580;11.392;2023-05-29T13:40:21;6.65;;;3.00;;
32152;SDS011;18656;50.580;11.392;2023-05-29T13:42:48;2.97;;;2.67;;
32152;SDS011;18656;50.580;11.392;2023-05-29T13:45:16;4.82;;;2.53;;
32152;SDS011;18656;50.580;11.392;2023-05-29T13:47:43;5.72;;;3.40;;
32152;SDS011;18656;50.580;11.392;2023-05-29T13:50:10;2.83;;;2.47;;
32152;SDS011;18656;50.580;11.392;2023-05-29T13:52:38;3.30;;;2.47;;
32152;SDS011;18656;50.580;11.392;2023-05-29T13:55:05;5.68;;;2.63;;
32152;SDS011;18656;50.580;11.392;2023-05-29T13:57:35;7.35;;;3.00;;
32152;SDS011;18656;50.580;11.392;2023-05-29T14:00:03;5.53;;;3.05;;
32152;SDS011;18656;50.580;11.392;2023-05-29T14:02:34;4.85;;;2.72;;
32152;SDS011;18656;50.580;11.392;2023-05-29T14:05:02;9.50;;;2.92;;
32152;SDS011;18656;50.580;11.392;2023-05-29T14:07:29;4.10;;;2.65;;
32152;SDS011;18656;50.580;11.392;2023-05-29T14:09:56;4.45;;;2.90;;
32152;SDS011;18656;50.580;11.392;2023-05-29T14:12:24;4.75;;;2.67;;
32152;SDS011;18656;50.580;11.392;2023-05-29T14:14:51;4.05;;;2.70;;
32152;SDS011;18656;50.580;11.392;2023-05-29T14:17:18;4.38;;;2.60;;
32152;SDS011;18656;50.580;11.392;2023-05-29T14:19:46;4.85;;;2.85;;
32152;SDS011;18656;50.580;11.392;2023-05-29T14:22:13;4.55;;;3.15;;
32152;SDS011;18656;50.580;11.392;2023-05-29T14:24:41;3.50;;;2.63;;
32152;SDS011;18656;50.580;11.392;2023-05-29T14:27:08;6.53;;;2.75;;
32152;SDS011;18656;50.580;11.392;2023-05-29T14:29:35;6.40;;;3.10;;
32152;SDS011;18656;50.580;11.392;2023-05-29T14:32:03;4.07;;;2.50;;
32152;SDS011;18656;50.580;11.392;2023-05-29T14:34:30;7.20;;;3.00;;
32152;SDS011;18656;50.580;11.392;2023-05-29T14:36:58;4.60;;;2.88;;
32152;SDS011;18656;50.580;11.392;2023-05-29T14:39:25;2.92;;;2.65;;
32152;SDS011;18656;50.580;11.392;2023-05-29T14:41:52;3.97;;;2.88;;
32152;SDS011;18656;50.580;11.392;2023-05-29T14:44:19;4.78;;;2.65;;
32152;SDS011;18656;50.580;11.392;2023-05-29T14:46:47;4.50;;;2.65;;
32152;SDS011;18656;50.580;11.392;2023-05-29T14:49:14;5.07;;;3.30;;
32152;SDS011;18656;50.580;11.392;2023-05-29T14:51:41;7.20;;;3.05;;
32152;SDS011;18656;50.580;11.392;2023-05-29T14:54:10;3.78;;;2.53;;
32152;SDS011;18656;50.580;11.392;2023-05-29T14:56:38;5.65;;;2.83;;
32152;SDS011;18656;50.580;11.392;2023-05-29T14:59:05;8.82;;;2.80;;
32152;SDS011;18656;50.580;11.392;2023-05-29T15:01:32;7.03;;;2.70;;